Time,TemperatureF,DewpointF,PressureIn,WindDirection,WindDirectionDegrees,WindSpeedMPH,WindSpeedGustMPH,Humidity,HourlyPrecipIn,Conditions,Clouds,dailyrainin,SoftwareType,DateUTC
2013-12-04 00:05:00,56.0,56.0,30.05,North,359,0.0,14.0,100,0.00,,,0.00,Wunderground v.1.15,2013-12-04 10:05:00,
2013-12-04 00:10:00,56.0,56.0,30.05,North,359,0.0,14.0,100,0.00,,,0.00,Wunderground v.1.15,2013-12-04 10:10:00,
2013-12-04 00:15:00,56.0,56.0,30.05,North,359,0.0,14.0,100,0.00,,,0.00,Wunderground v.1.15,2013-12-04 10:15:00,
2013-12-04 00:20:00,55.9,55.9,30.05,North,359,0.0,14.0,100,0.00,,,0.00,Wunderground v.1.15,2013-12-04 10:20:00,
2013-12-04 00:25:00,55.8,55.8,30.05,North,359,0.0,14.0,100,0.00,,,0.00,Wunderground v.1.15,2013-12-04 10:25:00,
2013-12-04 00:30:00,55.8,55.8,30.05,North,359,0.0,14.0,100,0.00,,,0.00,Wunderground v.1.15,2013-12-04 10:30:00,
2013-12-04 00:35:00,55.7,55.7,30.05,North,359,0.0,14.0,100,0.00,,,0.00,Wunderground v.1.15,2013-12-04 10:35:00,
2013-12-04 00:40:00,55.6,55.6,30.05,North,359,0.0,14.0,100,0.00,,,0.00,Wunderground v.1.15,2013-12-04 10:40:00,
2013-12-04 00:45:00,55.5,55.5,30.04,North,359,0.0,14.0,100,0.00,,,0.00,Wunderground v.1.15,2013-12-04 10:45:00,
2013-12-04 00:50:00,55.5,55.5,30.04,North,359,0.0,14.0,100,0.00,,,0.00,Wunderground v.1.15,2013-12-04 10:50:00,
2013-12-04 00:55:00,55.4,55.4,30.04,North,359,0.0,14.0,100,0.00,,,0.00,Wunderground v.1.15,2013-12-04 10:55:00,
2013-12-04 01:05:00,55.5,55.5,30.05,North,359,0.0,14.0,100,0.00,,,0.00,Wunderground v.1.15,2013-12-04 11:05:00,
2013-12-04 01:10:00,55.6,55.6,30.05,North,359,0.0,14.0,100,0.00,,,0.00,Wunderground v.1.15,2013-12-04 11:10:00,
2013-12-04 01:15:00,55.6,55.6,30.04,North,359,0.0,14.0,100,0.00,,,0.00,Wunderground v.1.15,2013-12-04 11:15:00,
2013-12-04 01:20:00,55.7,55.7,30.04,North,359,0.0,14.0,100,0.00,,,0.00,Wunderground v.1.15,2013-12-04 11:20:00,
2013-12-04 01:25:00,55.7,55.7,30.04,North,359,0.0,14.0,100,0.00,,,0.00,Wunderground v.1.15,2013-12-04 11:25:00,
2013-12-04 01:30:00,55.7,55.7,30.04,North,359,0.0,14.0,100,0.00,,,0.00,Wunderground v.1.15,2013-12-04 11:30:00,
2013-12-04 01:40:00,55.7,55.7,30.04,North,359,0.0,14.0,100,0.00,,,0.00,Wunderground v.1.15,2013-12-04 11:40:00,
2013-12-04 01:50:00,55.8,55.8,30.03,North,359,0.0,14.0,100,0.00,,,0.00,Wunderground v.1.15,2013-12-04 11:50:00,
2013-12-04 01:55:00,55.8,55.8,30.03,North,359,0.0,14.0,100,0.00,,,0.00,Wunderground v.1.15,2013-12-04 11:55:00,
2013-12-04 02:05:00,55.6,55.6,30.03,North,359,0.0,14.0,100,0.00,,,0.00,Wunderground v.1.15,2013-12-04 12:05:00,
2013-12-04 02:10:00,55.5,55.5,30.03,North,359,0.0,14.0,100,0.00,,,0.00,Wunderground v.1.15,2013-12-04 12:10:00,
2013-12-04 02:15:00,55.3,55.3,30.02,North,359,0.0,14.0,100,0.00,,,0.00,Wunderground v.1.15,2013-12-04 12:15:00,
2013-12-04 02:25:00,54.8,54.8,30.02,North,359,0.0,14.0,100,0.00,,,0.00,Wunderground v.1.15,2013-12-04 12:25:00,
2013-12-04 02:30:00,54.5,54.5,30.02,North,359,0.0,14.0,100,0.00,,,0.00,Wunderground v.1.15,2013-12-04 12:30:00,
2013-12-04 02:35:00,54.3,54.3,30.02,North,359,0.0,14.0,100,0.00,,,0.00,Wunderground v.1.15,2013-12-04 12:35:00,
2013-12-04 02:40:00,54.0,54.0,30.02,North,359,0.0,14.0,100,0.00,,,0.00,Wunderground v.1.15,2013-12-04 12:40:00,
2013-12-04 02:45:00,53.8,53.8,30.03,North,359,0.0,14.0,100,0.00,,,0.00,Wunderground v.1.15,2013-12-04 12:45:00,
2013-12-04 02:55:00,53.4,53.4,30.03,North,359,0.0,14.0,100,0.00,,,0.00,Wunderground v.1.15,2013-12-04 12:55:00,
2013-12-04 03:05:00,53.0,53.0,30.02,North,359,0.0,14.0,100,0.00,,,0.00,Wunderground v.1.15,2013-12-04 13:05:00,
2013-12-04 03:10:00,52.8,52.8,30.02,North,359,0.0,14.0,100,0.00,,,0.00,Wunderground v.1.15,2013-12-04 13:10:00,
2013-12-04 03:15:00,52.6,52.6,30.04,North,359,0.0,14.0,100,0.00,,,0.00,Wunderground v.1.15,2013-12-04 13:15:00,
2013-12-04 03:20:00,52.3,52.3,30.04,North,359,0.0,14.0,100,0.00,,,0.00,Wunderground v.1.15,2013-12-04 13:20:00,
2013-12-04 03:25:00,52.1,52.1,30.04,North,359,0.0,14.0,100,0.00,,,0.00,Wunderground v.1.15,2013-12-04 13:25:00,
2013-12-04 03:30:00,51.9,51.9,30.04,North,359,0.0,14.0,100,0.00,,,0.00,Wunderground v.1.15,2013-12-04 13:30:00,
2013-12-04 03:35:00,51.7,51.7,30.04,North,359,0.0,14.0,100,0.00,,,0.00,Wunderground v.1.15,2013-12-04 13:35:00,
2013-12-04 03:40:00,51.6,51.6,30.04,North,359,0.0,14.0,100,0.00,,,0.00,Wunderground v.1.15,2013-12-04 13:40:00,
2013-12-04 03:45:00,51.6,51.6,30.03,North,359,0.0,14.0,100,0.00,,,0.00,Wunderground v.1.15,2013-12-04 13:45:00,
2013-12-04 03:50:00,51.6,51.6,30.03,North,359,0.0,14.0,100,0.00,,,0.01,Wunderground v.1.15,2013-12-04 13:50:00,
2013-12-04 04:00:00,51.4,51.4,30.04,North,359,0.0,14.0,100,0.00,,,0.01,Wunderground v.1.15,2013-12-04 14:00:00,
2013-12-04 04:10:00,51.2,51.2,30.04,North,359,0.0,14.0,100,0.00,,,0.01,Wunderground v.1.15,2013-12-04 14:10:00,
2013-12-04 04:15:00,51.2,51.2,30.04,North,359,0.0,14.0,100,0.00,,,0.01,Wunderground v.1.15,2013-12-04 14:15:00,
2013-12-04 04:20:00,51.0,51.0,30.04,North,359,0.0,14.0,100,0.00,,,0.01,Wunderground v.1.15,2013-12-04 14:20:00,
2013-12-04 04:25:00,51.1,51.1,30.04,North,359,0.0,14.0,100,0.00,,,0.01,Wunderground v.1.15,2013-12-04 14:25:00,
2013-12-04 04:35:00,51.0,51.0,30.04,North,0,0.0,14.0,100,0.00,,,0.01,Wunderground v.1.15,2013-12-04 14:35:00,
2013-12-04 04:40:00,51.0,51.0,30.04,North,0,0.0,14.0,100,0.00,,,0.01,Wunderground v.1.15,2013-12-04 14:40:00,
2013-12-04 04:45:00,51.0,51.0,30.04,North,353,0.0,14.0,100,0.00,,,0.01,Wunderground v.1.15,2013-12-04 14:45:00,
2013-12-04 04:50:00,51.0,51.0,30.04,North,354,0.0,14.0,100,0.00,,,0.01,Wunderground v.1.15,2013-12-04 14:50:00,
2013-12-04 04:55:00,51.0,51.0,30.04,NNE,24,0.0,14.0,100,0.00,,,0.01,Wunderground v.1.15,2013-12-04 14:55:00,
2013-12-04 05:00:00,51.0,51.0,30.03,NNE,24,0.0,14.0,100,0.00,,,0.01,Wunderground v.1.15,2013-12-04 15:00:00,
2013-12-04 05:10:00,50.9,50.9,30.03,NNW,344,0.0,14.0,100,0.00,,,0.01,Wunderground v.1.15,2013-12-04 15:10:00,
2013-12-04 05:15:00,50.9,50.9,30.05,North,9,0.0,14.0,100,0.00,,,0.01,Wunderground v.1.15,2013-12-04 15:15:00,
2013-12-04 05:25:00,50.8,50.8,30.05,North,0,0.0,14.0,100,0.00,,,0.01,Wunderground v.1.15,2013-12-04 15:25:00,
2013-12-04 05:30:00,50.8,50.8,30.05,North,0,1.0,1.0,100,0.00,,,0.01,Wunderground v.1.15,2013-12-04 15:30:00,
2013-12-04 05:35:00,50.6,50.6,30.05,North,0,0.0,14.0,100,0.00,,,0.01,Wunderground v.1.15,2013-12-04 15:35:00,
2013-12-04 05:45:00,50.3,50.3,30.05,North,0,0.0,14.0,100,0.00,,,0.01,Wunderground v.1.15,2013-12-04 15:45:00,
2013-12-04 05:50:00,50.1,50.1,30.05,North,0,0.0,14.0,100,0.00,,,0.01,Wunderground v.1.15,2013-12-04 15:50:00,
2013-12-04 05:55:00,49.9,49.9,30.05,North,0,0.0,14.0,100,0.00,,,0.01,Wunderground v.1.15,2013-12-04 15:55:00,
2013-12-04 06:00:00,49.8,49.8,30.06,North,0,0.0,14.0,100,0.00,,,0.01,Wunderground v.1.15,2013-12-04 16:00:00,
2013-12-04 06:05:00,49.6,49.6,30.06,North,0,0.0,14.0,100,0.00,,,0.01,Wunderground v.1.15,2013-12-04 16:05:00,
2013-12-04 06:15:00,49.4,49.4,30.06,North,0,0.0,14.0,100,0.00,,,0.01,Wunderground v.1.15,2013-12-04 16:15:00,
2013-12-04 06:20:00,49.3,49.3,30.06,North,0,0.0,14.0,100,0.00,,,0.01,Wunderground v.1.15,2013-12-04 16:20:00,
2013-12-04 06:30:00,49.5,49.5,30.06,North,0,0.0,14.0,100,0.00,,,0.01,Wunderground v.1.15,2013-12-04 16:30:00,
2013-12-04 06:35:00,49.6,49.6,30.06,North,0,0.0,14.0,100,0.00,,,0.01,Wunderground v.1.15,2013-12-04 16:35:00,
2013-12-04 06:40:00,49.8,49.8,30.06,North,0,0.0,14.0,100,0.00,,,0.01,Wunderground v.1.15,2013-12-04 16:40:00,
2013-12-04 06:50:00,50.5,50.5,30.06,North,0,0.0,14.0,100,0.00,,,0.01,Wunderground v.1.15,2013-12-04 16:50:00,
2013-12-04 06:55:00,50.8,50.8,30.06,North,0,0.0,14.0,100,0.00,,,0.01,Wunderground v.1.15,2013-12-04 16:55:00,
2013-12-04 07:00:00,51.0,51.0,30.06,NNW,348,0.0,14.0,100,0.00,,,0.01,Wunderground v.1.15,2013-12-04 17:00:00,
2013-12-04 07:10:00,51.2,51.2,30.06,NNW,348,0.0,14.0,100,0.00,,,0.01,Wunderground v.1.15,2013-12-04 17:10:00,
2013-12-04 07:15:00,51.4,51.4,30.07,NNW,348,0.0,14.0,100,0.00,,,0.01,Wunderground v.1.15,2013-12-04 17:15:00,
2013-12-04 07:20:00,51.5,51.5,30.07,NNW,348,0.0,14.0,100,0.00,,,0.01,Wunderground v.1.15,2013-12-04 17:20:00,
2013-12-04 07:25:00,51.6,51.6,30.07,NNW,348,0.0,14.0,100,0.00,,,0.01,Wunderground v.1.15,2013-12-04 17:25:00,
2013-12-04 07:30:00,51.6,51.6,30.06,NNW,348,0.0,14.0,100,0.00,,,0.01,Wunderground v.1.15,2013-12-04 17:30:00,
2013-12-04 07:35:00,51.6,51.6,30.06,NNW,348,0.0,14.0,100,0.00,,,0.01,Wunderground v.1.15,2013-12-04 17:35:00,
2013-12-04 07:40:00,51.6,51.6,30.06,NNW,348,0.0,14.0,100,0.00,,,0.01,Wunderground v.1.15,2013-12-04 17:40:00,
2013-12-04 07:45:00,51.6,51.6,30.06,NNW,348,0.0,14.0,100,0.00,,,0.01,Wunderground v.1.15,2013-12-04 17:45:00,
2013-12-04 07:55:00,52.1,52.1,30.06,NNW,348,0.0,14.0,100,0.00,,,0.01,Wunderground v.1.15,2013-12-04 17:55:00,
2013-12-04 08:05:00,53.3,53.3,30.06,NNE,23,0.0,14.0,100,0.00,,,0.01,Wunderground v.1.15,2013-12-04 18:05:00,
2013-12-04 08:10:00,54.1,54.1,30.06,NE,51,0.0,14.0,100,0.00,,,0.01,Wunderground v.1.15,2013-12-04 18:10:00,
2013-12-04 08:15:00,54.8,54.8,30.06,North,4,0.0,14.0,100,0.00,,,0.01,Wunderground v.1.15,2013-12-04 18:15:00,
2013-12-04 08:20:00,55.3,55.3,30.06,North,4,0.0,14.0,100,0.00,,,0.01,Wunderground v.1.15,2013-12-04 18:20:00,
2013-12-04 08:25:00,55.7,55.7,30.06,North,4,0.0,14.0,100,0.00,,,0.01,Wunderground v.1.15,2013-12-04 18:25:00,
2013-12-04 08:35:00,55.6,55.6,30.06,North,4,0.0,14.0,100,0.00,,,0.01,Wunderground v.1.15,2013-12-04 18:35:00,
2013-12-04 08:40:00,55.7,55.7,30.06,North,4,0.0,14.0,100,0.00,,,0.01,Wunderground v.1.15,2013-12-04 18:40:00,
2013-12-04 08:45:00,55.8,55.8,30.07,North,4,0.0,14.0,100,0.00,,,0.01,Wunderground v.1.15,2013-12-04 18:45:00,
2013-12-04 08:50:00,56.0,56.0,30.07,North,4,1.0,1.0,100,0.00,,,0.01,Wunderground v.1.15,2013-12-04 18:50:00,
2013-12-04 08:55:00,56.2,56.2,30.07,NNW,338,1.0,14.0,100,0.00,,,0.01,Wunderground v.1.15,2013-12-04 18:55:00,
2013-12-04 09:05:00,56.9,56.9,30.06,NNW,338,0.0,14.0,100,0.00,,,0.01,Wunderground v.1.15,2013-12-04 19:05:00,
2013-12-04 09:15:00,57.6,57.6,30.08,North,10,1.0,14.0,100,0.00,,,0.01,Wunderground v.1.15,2013-12-04 19:15:00,
2013-12-04 09:20:00,57.7,57.7,30.08,North,350,1.0,1.0,100,0.00,,,0.01,Wunderground v.1.15,2013-12-04 19:20:00,
2013-12-04 09:25:00,58.0,58.0,30.08,ENE,67,1.0,14.0,100,0.00,,,0.01,Wunderground v.1.15,2013-12-04 19:25:00,
2013-12-04 09:30:00,58.3,58.3,30.08,NE,41,1.0,14.0,100,0.00,,,0.01,Wunderground v.1.15,2013-12-04 19:30:00,
2013-12-04 09:35:00,58.4,58.4,30.08,NW,307,1.0,14.0,100,0.00,,,0.01,Wunderground v.1.15,2013-12-04 19:35:00,
2013-12-04 09:40:00,58.6,58.6,30.08,NNE,31,1.0,14.0,100,0.00,,,0.01,Wunderground v.1.15,2013-12-04 19:40:00,
2013-12-04 09:45:00,59.0,59.0,30.07,ESE,106,1.0,14.0,100,0.00,,,0.01,Wunderground v.1.15,2013-12-04 19:45:00,
2013-12-04 09:50:00,59.5,59.5,30.07,ENE,60,1.0,14.0,100,0.00,,,0.01,Wunderground v.1.15,2013-12-04 19:50:00,
2013-12-04 09:55:00,59.4,59.4,30.07,North,359,2.0,14.0,100,0.00,,,0.01,Wunderground v.1.15,2013-12-04 19:55:00,
2013-12-04 10:00:00,59.7,59.4,30.06,NNE,23,2.0,14.0,99,0.00,,,0.01,Wunderground v.1.15,2013-12-04 20:00:00,
2013-12-04 10:05:00,60.5,59.6,30.06,North,359,2.0,14.0,97,0.00,,,0.01,Wunderground v.1.15,2013-12-04 20:05:00,
2013-12-04 10:15:00,62.0,60.3,30.04,NNE,20,2.0,14.0,94,0.00,,,0.01,Wunderground v.1.15,2013-12-04 20:15:00,
2013-12-04 10:25:00,63.4,60.4,30.04,NNE,30,2.0,14.0,90,0.00,,,0.01,Wunderground v.1.15,2013-12-04 20:25:00,
2013-12-04 10:30:00,63.2,59.3,30.04,NNW,340,3.0,14.0,87,0.00,,,0.01,Wunderground v.1.15,2013-12-04 20:30:00,
2013-12-04 10:35:00,64.0,60.1,30.04,NW,324,3.0,14.0,87,0.00,,,0.01,Wunderground v.1.15,2013-12-04 20:35:00,
2013-12-04 10:40:00,64.9,60.6,30.04,NNE,20,1.0,14.0,86,0.00,,,0.01,Wunderground v.1.15,2013-12-04 20:40:00,
2013-12-04 10:50:00,65.3,61.0,30.02,East,83,2.0,2.0,86,0.00,,,0.01,Wunderground v.1.15,2013-12-04 20:50:00,
2013-12-04 10:55:00,66.3,60.3,30.02,SW,234,1.0,14.0,81,0.00,,,0.01,Wunderground v.1.15,2013-12-04 20:55:00,
2013-12-04 11:00:00,66.4,60.7,30.01,North,0,1.0,1.0,82,0.00,,,0.01,Wunderground v.1.15,2013-12-04 21:00:00,
2013-12-04 11:05:00,66.1,59.7,30.01,NNE,27,2.0,2.0,80,0.00,,,0.01,Wunderground v.1.15,2013-12-04 21:05:00,
2013-12-04 11:10:00,66.2,59.8,30.01,North,352,2.0,14.0,80,0.00,,,0.01,Wunderground v.1.15,2013-12-04 21:10:00,
2013-12-04 11:15:00,66.7,60.7,30.01,NNE,30,2.0,14.0,81,0.00,,,0.01,Wunderground v.1.15,2013-12-04 21:15:00,
2013-12-04 11:20:00,66.7,60.3,30.01,North,1,2.0,14.0,80,0.00,,,0.01,Wunderground v.1.15,2013-12-04 21:20:00,
2013-12-04 11:25:00,65.4,60.1,30.01,ENE,59,2.0,14.0,83,0.00,,,0.01,Wunderground v.1.15,2013-12-04 21:25:00,
2013-12-04 11:35:00,63.9,59.3,30.02,North,8,3.0,14.0,85,0.00,,,0.01,Wunderground v.1.15,2013-12-04 21:35:00,
2013-12-04 11:40:00,63.3,59.0,30.02,NNE,17,3.0,3.0,86,0.00,,,0.01,Wunderground v.1.15,2013-12-04 21:40:00,
2013-12-04 11:45:00,63.3,59.4,30.02,North,10,2.0,14.0,87,0.00,,,0.01,Wunderground v.1.15,2013-12-04 21:45:00,
2013-12-04 11:55:00,64.8,59.5,30.02,NNE,30,2.0,2.0,83,0.00,,,0.01,Wunderground v.1.15,2013-12-04 21:55:00,
2013-12-04 12:00:00,65.4,59.1,30.01,NE,35,2.0,14.0,80,0.00,,,0.01,Wunderground v.1.15,2013-12-04 22:00:00,
2013-12-04 12:05:00,65.0,58.7,30.01,North,1,2.0,14.0,80,0.00,,,0.01,Wunderground v.1.15,2013-12-04 22:05:00,
2013-12-04 12:10:00,64.3,59.0,30.01,NNE,27,2.0,2.0,83,0.00,,,0.01,Wunderground v.1.15,2013-12-04 22:10:00,
2013-12-04 12:15:00,64.4,59.1,30.01,NNE,30,2.0,4.0,83,0.00,,,0.01,Wunderground v.1.15,2013-12-04 22:15:00,
2013-12-04 12:20:00,65.8,60.5,30.01,North,352,2.0,2.0,83,0.00,,,0.01,Wunderground v.1.15,2013-12-04 22:20:00,
2013-12-04 12:30:00,66.6,60.2,29.98,North,11,3.0,3.0,80,0.00,,,0.01,Wunderground v.1.15,2013-12-04 22:30:00,
2013-12-04 12:40:00,65.9,59.9,29.98,NNW,347,3.0,14.0,81,0.00,,,0.01,Wunderground v.1.15,2013-12-04 22:40:00,
2013-12-04 12:45:00,64.9,59.3,29.98,NNE,22,3.0,14.0,82,0.00,,,0.01,Wunderground v.1.15,2013-12-04 22:45:00,
2013-12-04 12:50:00,64.6,59.0,29.98,NNE,30,3.0,3.0,82,0.00,,,0.01,Wunderground v.1.15,2013-12-04 22:50:00,
2013-12-04 12:55:00,64.5,59.6,29.98,NNW,341,3.0,4.0,84,0.00,,,0.01,Wunderground v.1.15,2013-12-04 22:55:00,
2013-12-04 13:00:00,64.1,59.2,29.98,NNE,15,3.0,3.0,84,0.00,,,0.01,Wunderground v.1.15,2013-12-04 23:00:00,
2013-12-04 13:05:00,64.3,60.0,29.98,North,10,2.0,14.0,86,0.00,,,0.01,Wunderground v.1.15,2013-12-04 23:05:00,
2013-12-04 13:10:00,64.6,60.6,29.98,NNW,343,2.0,2.0,87,0.00,,,0.01,Wunderground v.1.15,2013-12-04 23:10:00,
2013-12-04 13:15:00,65.5,61.2,29.96,NNE,30,1.0,4.0,86,0.00,,,0.01,Wunderground v.1.15,2013-12-04 23:15:00,
2013-12-04 13:20:00,66.0,60.7,29.96,North,356,2.0,14.0,83,0.00,,,0.01,Wunderground v.1.15,2013-12-04 23:20:00,
2013-12-04 13:25:00,66.3,60.3,29.96,NNE,21,2.0,14.0,81,0.00,,,0.01,Wunderground v.1.15,2013-12-04 23:25:00,
2013-12-04 13:35:00,66.2,61.2,29.96,NNW,328,3.0,14.0,84,0.00,,,0.01,Wunderground v.1.15,2013-12-04 23:35:00,
2013-12-04 13:40:00,64.9,60.6,29.96,ENE,59,3.0,3.0,86,0.00,,,0.01,Wunderground v.1.15,2013-12-04 23:40:00,
2013-12-04 13:50:00,65.5,61.5,29.95,North,353,2.0,14.0,87,0.00,,,0.01,Wunderground v.1.15,2013-12-04 23:50:00,
2013-12-04 13:55:00,65.6,60.3,29.95,NNW,339,2.0,14.0,83,0.00,,,0.01,Wunderground v.1.15,2013-12-04 23:55:00,
2013-12-04 14:00:00,65.5,59.9,29.94,North,1,3.0,14.0,82,0.00,,,0.01,Wunderground v.1.15,2013-12-05 00:00:00,
2013-12-04 14:05:00,65.5,60.5,29.94,NNE,13,3.0,14.0,84,0.00,,,0.01,Wunderground v.1.15,2013-12-05 00:05:00,
2013-12-04 14:10:00,64.7,60.1,29.94,North,8,3.0,14.0,85,0.00,,,0.01,Wunderground v.1.15,2013-12-05 00:10:00,
2013-12-04 14:15:00,64.2,59.6,29.96,NE,49,3.0,14.0,85,0.00,,,0.01,Wunderground v.1.15,2013-12-05 00:15:00,
2013-12-04 14:20:00,65.0,59.7,29.96,ENE,60,3.0,14.0,83,0.00,,,0.01,Wunderground v.1.15,2013-12-05 00:20:00,
2013-12-04 14:25:00,65.2,60.2,29.96,North,359,3.0,14.0,84,0.00,,,0.01,Wunderground v.1.15,2013-12-05 00:25:00,
2013-12-04 14:30:00,65.4,60.8,29.95,North,8,3.0,3.0,85,0.00,,,0.01,Wunderground v.1.15,2013-12-05 00:30:00,
2013-12-04 14:35:00,65.2,60.9,29.95,NNE,33,2.0,14.0,86,0.00,,,0.01,Wunderground v.1.15,2013-12-05 00:35:00,
2013-12-04 14:40:00,64.8,60.5,29.95,NNE,23,3.0,14.0,86,0.00,,,0.01,Wunderground v.1.15,2013-12-05 00:40:00,
2013-12-04 14:45:00,64.3,60.3,29.96,North,0,4.0,14.0,87,0.00,,,0.01,Wunderground v.1.15,2013-12-05 00:45:00,
2013-12-04 14:50:00,64.6,60.0,29.96,North,1,4.0,4.0,85,0.00,,,0.01,Wunderground v.1.15,2013-12-05 00:50:00,
2013-12-04 15:00:00,64.7,60.4,29.95,NNE,28,2.0,14.0,86,0.00,,,0.01,Wunderground v.1.15,2013-12-05 01:00:00,
2013-12-04 15:05:00,64.6,60.3,29.95,North,1,3.0,14.0,86,0.00,,,0.01,Wunderground v.1.15,2013-12-05 01:05:00,
2013-12-04 15:10:00,64.5,59.9,29.95,North,351,2.0,14.0,85,0.00,,,0.01,Wunderground v.1.15,2013-12-05 01:10:00,
2013-12-04 15:15:00,64.4,59.8,29.96,NE,34,3.0,14.0,85,0.00,,,0.01,Wunderground v.1.15,2013-12-05 01:15:00,
2013-12-04 15:20:00,64.5,60.2,29.96,North,359,2.0,14.0,86,0.00,,,0.01,Wunderground v.1.15,2013-12-05 01:20:00,
2013-12-04 15:25:00,64.5,60.5,29.96,NE,46,3.0,14.0,87,0.00,,,0.01,Wunderground v.1.15,2013-12-05 01:25:00,
2013-12-04 15:30:00,63.9,60.0,29.97,North,0,3.0,14.0,87,0.00,,,0.01,Wunderground v.1.15,2013-12-05 01:30:00,
2013-12-04 15:35:00,63.6,60.0,29.97,ENE,63,3.0,14.0,88,0.00,,,0.01,Wunderground v.1.15,2013-12-05 01:35:00,
2013-12-04 15:40:00,63.6,60.0,29.97,NE,37,4.0,4.0,88,0.00,,,0.01,Wunderground v.1.15,2013-12-05 01:40:00,
2013-12-04 15:45:00,63.7,60.1,29.97,NW,309,3.0,14.0,88,0.00,,,0.01,Wunderground v.1.15,2013-12-05 01:45:00,
2013-12-04 15:50:00,63.6,60.0,29.97,NNW,328,2.0,2.0,88,0.00,,,0.01,Wunderground v.1.15,2013-12-05 01:50:00,
2013-12-04 15:55:00,63.6,60.0,29.97,North,1,2.0,7.0,88,0.00,,,0.01,Wunderground v.1.15,2013-12-05 01:55:00,
2013-12-04 16:05:00,62.8,59.2,29.97,North,7,3.0,14.0,88,0.00,,,0.01,Wunderground v.1.15,2013-12-05 02:05:00,
2013-12-04 16:10:00,62.6,59.3,29.97,NNW,342,2.0,14.0,89,0.00,,,0.01,Wunderground v.1.15,2013-12-05 02:10:00,
2013-12-04 16:15:00,62.6,59.9,29.97,NNE,24,2.0,14.0,91,0.00,,,0.01,Wunderground v.1.15,2013-12-05 02:15:00,
2013-12-04 16:25:00,62.0,59.6,29.97,NNW,332,2.0,14.0,92,0.00,,,0.01,Wunderground v.1.15,2013-12-05 02:25:00,
2013-12-04 16:30:00,61.5,59.5,29.98,ENE,65,2.0,14.0,93,0.00,,,0.01,Wunderground v.1.15,2013-12-05 02:30:00,
2013-12-04 16:35:00,61.2,59.5,29.98,NE,52,2.0,14.0,94,0.00,,,0.01,Wunderground v.1.15,2013-12-05 02:35:00,
2013-12-04 16:40:00,61.2,59.5,29.98,NNW,342,2.0,2.0,94,0.00,,,0.01,Wunderground v.1.15,2013-12-05 02:40:00,
2013-12-04 16:45:00,60.9,59.2,29.99,North,356,1.0,4.0,94,0.00,,,0.01,Wunderground v.1.15,2013-12-05 02:45:00,
2013-12-04 16:50:00,60.6,58.9,29.99,North,359,2.0,2.0,94,0.00,,,0.01,Wunderground v.1.15,2013-12-05 02:50:00,
2013-12-04 16:55:00,60.7,59.6,29.99,North,10,2.0,14.0,96,0.00,,,0.01,Wunderground v.1.15,2013-12-05 02:55:00,
2013-12-04 17:00:00,60.5,59.4,29.99,North,1,2.0,14.0,96,0.00,,,0.01,Wunderground v.1.15,2013-12-05 03:00:00,
2013-12-04 17:05:00,60.4,59.3,29.99,North,359,2.0,14.0,96,0.00,,,0.01,Wunderground v.1.15,2013-12-05 03:05:00,
2013-12-04 17:15:00,59.8,58.7,30.01,North,1,2.0,14.0,96,0.00,,,0.01,Wunderground v.1.15,2013-12-05 03:15:00,
2013-12-04 17:20:00,59.6,58.7,30.01,NNE,20,2.0,2.0,97,0.00,,,0.01,Wunderground v.1.15,2013-12-05 03:20:00,
2013-12-04 17:25:00,59.3,58.4,30.01,North,359,2.0,14.0,97,0.00,,,0.01,Wunderground v.1.15,2013-12-05 03:25:00,
2013-12-04 17:30:00,59.1,58.2,30.02,NNW,337,2.0,2.0,97,0.00,,,0.01,Wunderground v.1.15,2013-12-05 03:30:00,
2013-12-04 17:35:00,58.9,58.3,30.02,North,1,2.0,3.0,98,0.00,,,0.01,Wunderground v.1.15,2013-12-05 03:35:00,
2013-12-04 17:40:00,58.7,58.1,30.02,NNE,24,2.0,14.0,98,0.00,,,0.01,Wunderground v.1.15,2013-12-05 03:40:00,
2013-12-04 17:45:00,58.5,57.9,30.03,North,6,2.0,14.0,98,0.00,,,0.01,Wunderground v.1.15,2013-12-05 03:45:00,
2013-12-04 17:50:00,58.3,57.7,30.03,North,6,1.0,1.0,98,0.00,,,0.01,Wunderground v.1.15,2013-12-05 03:50:00,
2013-12-04 17:55:00,58.1,57.5,30.03,North,6,1.0,14.0,98,0.00,,,0.01,Wunderground v.1.15,2013-12-05 03:55:00,
2013-12-04 18:05:00,57.7,57.1,30.03,North,7,1.0,14.0,98,0.00,,,0.01,Wunderground v.1.15,2013-12-05 04:05:00,
2013-12-04 18:10:00,57.6,57.0,30.03,North,6,1.0,14.0,98,0.00,,,0.01,Wunderground v.1.15,2013-12-05 04:10:00,
2013-12-04 18:20:00,57.7,57.4,30.05,North,7,1.0,1.0,99,0.00,,,0.01,Wunderground v.1.15,2013-12-05 04:20:00,
2013-12-04 18:25:00,57.6,57.3,30.05,North,7,0.0,14.0,99,0.00,,,0.01,Wunderground v.1.15,2013-12-05 04:25:00,
2013-12-04 18:30:00,57.4,57.1,30.05,North,11,1.0,14.0,99,0.00,,,0.01,Wunderground v.1.15,2013-12-05 04:30:00,
2013-12-04 18:35:00,57.2,56.9,30.05,North,11,1.0,14.0,99,0.00,,,0.01,Wunderground v.1.15,2013-12-05 04:35:00,
2013-12-04 18:40:00,57.0,56.7,30.05,North,11,0.0,14.0,99,0.00,,,0.01,Wunderground v.1.15,2013-12-05 04:40:00,
2013-12-04 18:45:00,56.8,56.5,30.06,North,11,0.0,14.0,99,0.00,,,0.01,Wunderground v.1.15,2013-12-05 04:45:00,
2013-12-04 18:50:00,56.5,56.2,30.06,North,11,0.0,14.0,99,0.00,,,0.01,Wunderground v.1.15,2013-12-05 04:50:00,
2013-12-04 18:55:00,56.3,56.0,30.06,North,11,0.0,14.0,99,0.00,,,0.01,Wunderground v.1.15,2013-12-05 04:55:00,
2013-12-04 19:00:00,56.2,55.9,30.08,North,11,0.0,14.0,99,0.00,,,0.01,Wunderground v.1.15,2013-12-05 05:00:00,
2013-12-04 19:05:00,56.0,55.7,30.08,North,11,0.0,14.0,99,0.00,,,0.01,Wunderground v.1.15,2013-12-05 05:05:00,
2013-12-04 19:10:00,55.8,55.5,30.08,North,11,0.0,14.0,99,0.00,,,0.01,Wunderground v.1.15,2013-12-05 05:10:00,
2013-12-04 19:15:00,55.6,55.3,30.07,North,11,0.0,14.0,99,0.00,,,0.01,Wunderground v.1.15,2013-12-05 05:15:00,
2013-12-04 19:20:00,55.4,55.1,30.07,North,11,0.0,14.0,99,0.00,,,0.01,Wunderground v.1.15,2013-12-05 05:20:00,
2013-12-04 19:30:00,55.2,54.9,30.08,North,11,0.0,14.0,99,0.00,,,0.01,Wunderground v.1.15,2013-12-05 05:30:00,
2013-12-04 19:35:00,55.1,54.8,30.08,North,11,0.0,14.0,99,0.00,,,0.01,Wunderground v.1.15,2013-12-05 05:35:00,
2013-12-04 19:40:00,54.9,54.6,30.08,North,11,0.0,14.0,99,0.00,,,0.01,Wunderground v.1.15,2013-12-05 05:40:00,
2013-12-04 19:45:00,54.8,54.5,30.08,North,11,0.0,14.0,99,0.00,,,0.01,Wunderground v.1.15,2013-12-05 05:45:00,
2013-12-04 19:50:00,54.6,54.3,30.08,North,11,0.0,14.0,99,0.00,,,0.01,Wunderground v.1.15,2013-12-05 05:50:00,
2013-12-04 19:55:00,54.4,54.1,30.08,North,11,0.0,14.0,99,0.00,,,0.01,Wunderground v.1.15,2013-12-05 05:55:00,
2013-12-04 20:00:00,54.1,53.8,30.10,North,11,0.0,14.0,99,0.00,,,0.01,Wunderground v.1.15,2013-12-05 06:00:00,
2013-12-04 20:05:00,53.7,53.4,30.10,North,11,0.0,14.0,99,0.00,,,0.01,Wunderground v.1.15,2013-12-05 06:05:00,
2013-12-04 20:10:00,53.4,53.1,30.10,North,11,0.0,14.0,99,0.00,,,0.01,Wunderground v.1.15,2013-12-05 06:10:00,
2013-12-04 20:15:00,53.2,52.9,30.08,North,11,0.0,14.0,99,0.00,,,0.01,Wunderground v.1.15,2013-12-05 06:15:00,
2013-12-04 20:20:00,53.2,52.9,30.08,North,11,0.0,14.0,99,0.00,,,0.01,Wunderground v.1.15,2013-12-05 06:20:00,
2013-12-04 20:25:00,53.2,52.9,30.08,North,11,0.0,14.0,99,0.00,,,0.01,Wunderground v.1.15,2013-12-05 06:25:00,
2013-12-04 20:30:00,53.3,53.0,30.09,North,11,0.0,14.0,99,0.00,,,0.01,Wunderground v.1.15,2013-12-05 06:30:00,
2013-12-04 20:40:00,53.3,53.0,30.09,North,11,0.0,14.0,99,0.00,,,0.01,Wunderground v.1.15,2013-12-05 06:40:00,
2013-12-04 20:45:00,53.4,53.4,30.10,North,11,0.0,14.0,100,0.00,,,0.01,Wunderground v.1.15,2013-12-05 06:45:00,
2013-12-04 20:55:00,53.5,53.5,30.10,North,11,0.0,14.0,100,0.00,,,0.01,Wunderground v.1.15,2013-12-05 06:55:00,
2013-12-04 21:00:00,53.5,53.5,30.10,North,11,0.0,14.0,100,0.00,,,0.01,Wunderground v.1.15,2013-12-05 07:00:00,
2013-12-04 21:05:00,53.5,53.5,30.10,North,11,0.0,14.0,100,0.00,,,0.01,Wunderground v.1.15,2013-12-05 07:05:00,
2013-12-04 21:10:00,53.5,53.5,30.10,North,11,0.0,14.0,100,0.00,,,0.01,Wunderground v.1.15,2013-12-05 07:10:00,
2013-12-04 21:15:00,53.4,53.4,30.09,North,11,0.0,14.0,100,0.00,,,0.01,Wunderground v.1.15,2013-12-05 07:15:00,
2013-12-04 21:20:00,53.3,53.3,30.09,North,11,0.0,14.0,100,0.00,,,0.01,Wunderground v.1.15,2013-12-05 07:20:00,
2013-12-04 21:30:00,53.2,52.9,30.09,North,11,0.0,14.0,99,0.00,,,0.01,Wunderground v.1.15,2013-12-05 07:30:00,
2013-12-04 21:35:00,53.1,52.8,30.09,North,11,0.0,14.0,99,0.00,,,0.01,Wunderground v.1.15,2013-12-05 07:35:00,
2013-12-04 21:40:00,53.0,52.7,30.09,North,11,0.0,14.0,99,0.00,,,0.01,Wunderground v.1.15,2013-12-05 07:40:00,
2013-12-04 21:50:00,52.7,52.4,30.09,North,11,0.0,14.0,99,0.00,,,0.01,Wunderground v.1.15,2013-12-05 07:50:00,
2013-12-04 21:55:00,52.6,52.3,30.09,North,11,0.0,14.0,99,0.00,,,0.01,Wunderground v.1.15,2013-12-05 07:55:00,
2013-12-04 22:05:00,52.4,52.1,30.09,North,11,0.0,14.0,99,0.00,,,0.01,Wunderground v.1.15,2013-12-05 08:05:00,
2013-12-04 22:10:00,52.3,52.0,30.09,North,11,0.0,14.0,99,0.00,,,0.01,Wunderground v.1.15,2013-12-05 08:10:00,
2013-12-04 22:15:00,52.2,51.9,30.07,North,11,0.0,14.0,99,0.00,,,0.01,Wunderground v.1.15,2013-12-05 08:15:00,
2013-12-04 22:20:00,52.1,51.8,30.07,North,11,0.0,14.0,99,0.00,,,0.01,Wunderground v.1.15,2013-12-05 08:20:00,
2013-12-04 22:25:00,52.1,51.8,30.07,North,11,0.0,14.0,99,0.00,,,0.01,Wunderground v.1.15,2013-12-05 08:25:00,
2013-12-04 22:35:00,52.0,51.7,30.07,North,11,0.0,14.0,99,0.00,,,0.01,Wunderground v.1.15,2013-12-05 08:35:00,
2013-12-04 22:40:00,52.2,52.2,30.07,North,11,0.0,14.0,100,0.00,,,0.01,Wunderground v.1.15,2013-12-05 08:40:00,
2013-12-04 22:45:00,52.4,52.4,30.06,North,11,0.0,14.0,100,0.00,,,0.01,Wunderground v.1.15,2013-12-05 08:45:00,
2013-12-04 22:55:00,52.5,52.5,30.06,North,11,0.0,14.0,100,0.00,,,0.01,Wunderground v.1.15,2013-12-05 08:55:00,
2013-12-04 23:00:00,52.6,52.6,30.05,North,11,0.0,14.0,100,0.00,,,0.01,Wunderground v.1.15,2013-12-05 09:00:00,
2013-12-04 23:10:00,52.8,52.8,30.05,North,11,0.0,14.0,100,0.00,,,0.01,Wunderground v.1.15,2013-12-05 09:10:00,
2013-12-04 23:15:00,52.9,52.9,30.05,North,11,0.0,14.0,100,0.00,,,0.01,Wunderground v.1.15,2013-12-05 09:15:00,
2013-12-04 23:20:00,53.1,53.1,30.05,North,11,0.0,14.0,100,0.00,,,0.01,Wunderground v.1.15,2013-12-05 09:20:00,
2013-12-04 23:25:00,53.3,53.3,30.05,North,11,0.0,14.0,100,0.00,,,0.01,Wunderground v.1.15,2013-12-05 09:25:00,
2013-12-04 23:30:00,53.5,53.5,30.05,North,11,0.0,14.0,100,0.00,,,0.01,Wunderground v.1.15,2013-12-05 09:30:00,
2013-12-04 23:35:00,54.1,54.1,30.05,North,11,0.0,14.0,100,0.00,,,0.01,Wunderground v.1.15,2013-12-05 09:35:00,
2013-12-04 23:40:00,54.4,54.4,30.05,North,11,0.0,14.0,100,0.00,,,0.01,Wunderground v.1.15,2013-12-05 09:40:00,
2013-12-04 23:45:00,54.5,54.5,30.04,North,11,0.0,14.0,100,0.00,,,0.01,Wunderground v.1.15,2013-12-05 09:45:00,
2013-12-04 23:50:00,54.8,54.8,30.04,North,11,0.0,14.0,100,0.00,,,0.01,Wunderground v.1.15,2013-12-05 09:50:00,
2013-12-04 23:55:00,55.0,55.0,30.04,North,11,0.0,14.0,100,0.00,,,0.01,Wunderground v.1.15,2013-12-05 09:55:00,